Time;durP1;ratioP1;P1;durP2;ratioP2;P2;SDS_P1;SDS_P2;PMS_P1;PMS_P2;Temp;Humidity;BMP_temperature;BMP_pressure;BME280_temperature;BME280_humidity;BME280_pressure;Samples;Min_cycle;Max_cycle;Signal;HPM_P1;HPM_P2
2021/07/12 00:02:02;;;;;;;8.10;7.03;;;;;;;17.00;71.41;96376.97;5033265;28;20064;-65
2021/07/12 00:04:28;;;;;;;12.00;7.35;;;;;;;16.92;72.62;96374.00;5034466;28;20033;-64
2021/07/12 00:06:53;;;;;;;10.07;7.40;;;;;;;16.95;72.76;96381.72;5033409;28;20031;-68
2021/07/12 00:09:19;;;;;;;8.52;7.65;;;;;;;16.95;71.94;96375.59;5033316;28;20028;-62
2021/07/12 00:11:44;;;;;;;10.02;7.55;;;;;;;16.92;71.78;96380.13;5033192;28;20033;-69
2021/07/12 00:14:10;;;;;;;10.55;6.40;;;;;;;16.97;71.10;96376.31;5033131;28;20025;-66
2021/07/12 00:16:36;;;;;;;8.10;7.03;;;;;;;16.93;71.05;96378.34;5034150;28;20061;-66
2021/07/12 00:19:02;;;;;;;7.78;6.82;;;;;;;16.89;71.29;96376.84;5033103;28;20495;-64
2021/07/12 00:21:28;;;;;;;8.10;7.30;;;;;;;16.83;71.48;96377.25;5033063;28;20044;-62
2021/07/12 00:23:53;;;;;;;12.75;7.53;;;;;;;16.83;71.94;96375.47;5033204;28;20375;-63
2021/07/12 00:26:19;;;;;;;7.93;7.13;;;;;;;16.79;71.82;96384.50;5033236;28;20029;-66
2021/07/12 00:28:45;;;;;;;8.52;7.20;;;;;;;16.79;71.65;96387.16;5034009;28;20030;-65
2021/07/12 00:31:11;;;;;;;8.65;7.03;;;;;;;16.82;72.00;96381.69;5033103;28;20068;-65
2021/07/12 00:33:37;;;;;;;8.98;6.97;;;;;;;16.84;71.72;96379.78;5033185;28;20402;-64
2021/07/12 00:36:03;;;;;;;9.57;7.45;;;;;;;16.85;71.49;96381.47;5034113;28;20116;-65
2021/07/12 00:38:29;;;;;;;8.02;6.65;;;;;;;16.83;71.58;96380.75;5033075;28;20028;-65
2021/07/12 00:40:55;;;;;;;10.82;8.18;;;;;;;16.86;71.61;96371.75;5032944;28;20017;-65
2021/07/12 00:43:21;;;;;;;10.77;7.88;;;;;;;16.78;72.47;96367.84;5032815;28;20083;-66
2021/07/12 00:45:47;;;;;;;7.80;6.85;;;;;;;16.77;72.17;96374.06;5033015;28;20022;-63
2021/07/12 00:48:13;;;;;;;8.50;7.38;;;;;;;16.73;72.11;96362.00;5033885;28;20025;-65
2021/07/12 00:50:40;;;;;;;13.18;8.15;;;;;;;16.76;71.77;96364.44;5032685;28;20084;-67
2021/07/12 00:53:07;;;;;;;9.60;7.90;;;;;;;16.73;71.86;96371.72;5032845;28;20033;-64
2021/07/12 00:55:41;;;;;;;8.02;7.22;;;;;;;16.76;72.11;96375.00;5036671;28;20048;-66
2021/07/12 00:58:10;;;;;;;8.57;7.07;;;;;;;16.78;72.13;96369.63;5036876;28;20120;-64
2021/07/12 01:00:37;;;;;;;10.57;8.10;;;;;;;16.70;72.20;96367.47;5037563;28;20030;-66
2021/07/12 01:03:03;;;;;;;7.95;7.15;;;;;;;16.70;72.46;96375.41;5036556;28;20034;-68
2021/07/12 01:05:31;;;;;;;8.15;7.22;;;;;;;16.69;72.13;96371.09;5036860;28;20025;-66
2021/07/12 01:07:58;;;;;;;8.23;7.25;;;;;;;16.73;71.74;96372.56;5036713;28;20121;-66
2021/07/12 01:10:25;;;;;;;8.13;6.82;;;;;;;16.68;71.93;96364.94;5036665;28;20025;-67
2021/07/12 01:13:12;;;;;;;11.02;7.60;;;;;;;16.68;72.37;96372.03;5037484;28;20057;-67
2021/07/12 01:15:55;;;;;;;8.82;7.18;;;;;;;16.56;73.70;96373.69;5036539;28;20037;-63
2021/07/12 01:18:42;;;;;;;8.90;6.60;;;;;;;16.59;73.01;96383.19;5036425;28;20048;-66
2021/07/12 01:21:45;;;;;;;9.73;6.80;;;;;;;16.59;72.75;96385.84;5036414;28;20140;-64
2021/07/12 01:24:47;;;;;;;7.75;7.00;;;;;;;16.58;72.05;96384.97;5037292;28;20052;-67
2021/07/12 01:27:31;;;;;;;8.18;7.38;;;;;;;16.48;73.48;96379.47;5036175;28;20029;-62
2021/07/12 01:30:15;;;;;;;7.88;6.97;;;;;;;16.47;73.00;96382.19;5036384;28;20140;-66
2021/07/12 01:32:55;;;;;;;9.55;7.70;;;;;;;16.40;72.66;96379.09;5039272;28;20056;-63
2021/07/12 01:35:24;;;;;;;11.68;7.57;;;;;;;16.39;72.87;96380.91;5056196;28;20371;-65
2021/07/12 01:38:06;;;;;;;9.45;6.75;;;;;;;16.40;72.42;96377.31;5055931;28;20025;-61
2021/07/12 01:40:35;;;;;;;8.32;7.07;;;;;;;16.39;72.76;96370.34;5055977;28;20017;-63
2021/07/12 01:43:01;;;;;;;9.65;7.30;;;;;;;16.38;73.09;96370.44;5049582;28;20018;-64
2021/07/12 01:45:33;;;;;;;7.97;7.07;;;;;;;16.34;73.78;96367.13;5036788;28;20499;-63
2021/07/12 01:48:07;;;;;;;10.95;7.43;;;;;;;16.36;73.19;96364.41;5055881;28;20044;-63
2021/07/12 01:50:47;;;;;;;7.78;6.60;;;;;;;16.35;72.73;96360.94;5055637;28;20451;-63
2021/07/12 01:53:23;;;;;;;9.38;8.07;;;;;;;16.33;73.29;96360.16;5055792;28;20379;-69
2021/07/12 01:56:25;;;;;;;8.43;7.40;;;;;;;16.39;73.07;96353.66;5054513;28;20037;-63
2021/07/12 01:58:58;;;;;;;8.50;7.00;;;;;;;16.41;72.51;96352.59;5055736;28;20391;-69
2021/07/12 02:01:27;;;;;;;7.68;6.80;;;;;;;16.44;72.49;96353.34;5055377;28;20087;-64
2021/07/12 02:03:54;;;;;;;10.30;7.45;;;;;;;16.47;72.24;96355.78;5055451;28;20028;-67
2021/07/12 02:06:21;;;;;;;7.72;6.90;;;;;;;16.53;72.37;96358.88;5055118;28;20491;-67
2021/07/12 02:08:51;;;;;;;8.18;7.38;;;;;;;16.54;72.50;96365.00;5053283;28;20033;-68
2021/07/12 02:11:18;;;;;;;8.32;6.75;;;;;;;16.47;72.06;96364.56;5035841;28;20033;-66
2021/07/12 02:13:47;;;;;;;8.80;6.82;;;;;;;16.45;72.23;96365.59;5035322;28;20057;-63
2021/07/12 02:16:14;;;;;;;10.88;8.35;;;;;;;16.43;72.44;96363.06;5035274;28;20024;-63
2021/07/12 02:18:42;;;;;;;7.70;6.90;;;;;;;16.42;72.45;96369.28;5035436;28;20463;-64
2021/07/12 02:21:10;;;;;;;8.65;6.53;;;;;;;16.44;72.21;96374.47;5036295;28;20029;-65
2021/07/12 02:23:38;;;;;;;8.40;6.70;;;;;;;16.41;72.14;96371.06;5035228;28;20091;-64
2021/07/12 02:26:05;;;;;;;7.95;7.15;;;;;;;16.38;72.16;96378.34;5035220;28;20079;-63
2021/07/12 02:28:32;;;;;;;9.65;7.38;;;;;;;16.39;72.27;96374.75;5035221;28;20022;-63
2021/07/12 02:30:59;;;;;;;9.45;6.72;;;;;;;16.41;72.15;96373.72;5035138;28;20017;-64
2021/07/12 02:33:26;;;;;;;7.70;6.90;;;;;;;16.38;72.64;96368.63;5036039;28;20083;-63
2021/07/12 02:35:53;;;;;;;10.82;6.88;;;;;;;16.35;72.76;96376.78;5035056;28;20029;-64
2021/07/12 02:38:20;;;;;;;8.20;7.05;;;;;;;16.32;72.81;96379.59;5034879;28;20018;-65
2021/07/12 02:40:46;;;;;;;9.50;6.78;;;;;;;16.29;72.56;96371.88;5034819;28;20022;-65
2021/07/12 02:43:13;;;;;;;8.63;6.85;;;;;;;16.27;72.51;96365.84;5034831;28;20055;-67
2021/07/12 02:45:40;;;;;;;7.80;6.90;;;;;;;16.27;72.37;96374.63;5046567;28;20344;-68
2021/07/12 02:48:06;;;;;;;8.70;7.35;;;;;;;16.26;72.44;96380.00;5054796;28;20084;-64
2021/07/12 02:50:32;;;;;;;10.75;7.40;;;;;;;16.26;72.76;96374.72;5054454;28;20725;-63
2021/07/12 02:53:05;;;;;;;8.50;7.57;;;;;;;16.22;72.99;96373.22;5054544;28;20025;-64
2021/07/12 02:55:30;;;;;;;11.18;7.03;;;;;;;16.25;72.90;96371.22;5054635;28;20501;-67
2021/07/12 02:57:56;;;;;;;8.73;6.90;;;;;;;16.29;72.40;96371.88;5041472;28;20041;-66
2021/07/12 03:00:22;;;;;;;9.13;6.43;;;;;;;16.27;72.28;96371.13;5034534;28;20380;-63
2021/07/12 03:02:47;;;;;;;7.93;6.55;;;;;;;16.29;72.14;96385.06;5034350;28;20030;-66
2021/07/12 03:05:13;;;;;;;11.13;7.88;;;;;;;16.31;72.56;96374.41;5034506;28;20037;-66
2021/07/12 03:07:45;;;;;;;7.95;6.93;;;;;;;16.29;72.94;96385.06;5034576;28;20025;-66
2021/07/12 03:10:21;;;;;;;7.40;6.70;;;;;;;16.31;72.78;96379.69;5048158;28;20025;-64
2021/07/12 03:12:52;;;;;;;7.68;6.68;;;;;;;16.34;72.65;96380.34;5053899;28;20067;-68
2021/07/12 03:15:40;;;;;;;12.05;6.63;;;;;;;16.33;72.60;96372.50;5054275;28;20082;-63
2021/07/12 03:18:16;;;;;;;9.55;6.07;;;;;;;16.35;73.00;96381.19;5053547;28;20035;-66
2021/07/12 03:20:44;;;;;;;7.70;6.90;;;;;;;16.38;72.54;96383.63;5053961;28;20082;-66
2021/07/12 03:23:13;;;;;;;9.18;7.47;;;;;;;16.41;72.58;96376.34;5034131;28;20029;-60
2021/07/12 03:25:45;;;;;;;8.98;6.65;;;;;;;16.45;72.41;96378.78;5033955;28;20511;-65
2021/07/12 03:28:11;;;;;;;9.80;6.55;;;;;;;16.47;72.26;96377.78;5034149;28;20472;-64
2021/07/12 03:30:38;;;;;;;8.23;7.07;;;;;;;16.52;72.39;96377.44;5042448;28;20029;-66
2021/07/12 03:33:06;;;;;;;7.30;6.57;;;;;;;16.59;72.52;96386.69;5053807;28;20075;-69
2021/07/12 03:35:41;;;;;;;9.18;7.22;;;;;;;16.62;72.36;96381.19;5047219;28;20410;-63
2021/07/12 03:38:07;;;;;;;8.18;6.88;;;;;;;16.76;72.09;96377.66;5033742;28;20042;-63
2021/07/12 03:40:33;;;;;;;8.63;6.90;;;;;;;17.04;72.08;96380.25;5036015;28;20029;-67
2021/07/12 03:42:59;;;;;;;8.55;7.07;;;;;;;17.31;71.43;96382.03;5053569;28;20056;-67
2021/07/12 03:45:24;;;;;;;9.05;5.63;;;;;;;17.59;70.07;96385.41;5045481;28;20072;-66
2021/07/12 03:47:50;;;;;;;10.45;6.53;;;;;;;17.88;69.00;96381.69;5033602;28;20533;-62
2021/07/12 03:50:17;;;;;;;8.20;6.00;;;;;;;18.17;68.52;96381.44;5033431;28;20129;-60
2021/07/12 03:52:43;;;;;;;7.40;5.72;;;;;;;18.50;67.83;96381.78;5034583;28;20048;-62
2021/07/12 03:55:10;;;;;;;7.63;5.95;;;;;;;18.86;66.91;96384.47;5033470;28;20065;-65
2021/07/12 03:57:36;;;;;;;8.25;5.80;;;;;;;19.17;66.19;96372.44;5033445;28;20124;-65
2021/07/12 04:00:03;;;;;;;5.90;5.40;;;;;;;19.53;65.20;96380.34;5033451;28;20519;-71
2021/07/12 04:02:29;;;;;;;7.97;5.80;;;;;;;19.85;64.36;96381.47;5033589;28;20064;-68
2021/07/12 04:04:55;;;;;;;8.50;5.45;;;;;;;20.15;63.52;96379.19;5033351;28;20057;-70
2021/07/12 04:07:20;;;;;;;6.97;5.07;;;;;;;20.50;62.68;96380.00;5034245;28;20092;-64
2021/07/12 04:09:45;;;;;;;7.10;5.57;;;;;;;20.84;61.81;96374.56;5042796;28;20039;-64
2021/07/12 04:12:11;;;;;;;7.05;4.93;;;;;;;21.17;61.29;96382.53;5040031;28;20030;-67
2021/07/12 04:14:37;;;;;;;5.78;5.18;;;;;;;21.46;60.57;96387.22;5033309;28;20022;-69
2021/07/12 04:17:03;;;;;;;7.05;5.68;;;;;;;21.75;59.36;96389.22;5033308;28;20042;-64
2021/07/12 04:19:28;;;;;;;6.60;5.65;;;;;;;22.03;59.75;96386.00;5033424;28;20025;-69
2021/07/12 04:21:54;;;;;;;7.85;5.95;;;;;;;22.30;59.33;96384.53;5033093;28;20546;-67
2021/07/12 04:24:19;;;;;;;7.22;5.85;;;;;;;22.62;58.74;96393.34;5033160;28;20518;-68
2021/07/12 04:26:45;;;;;;;6.68;5.63;;;;;;;22.94;58.14;96389.59;5033093;28;20494;-71
2021/07/12 04:29:11;;;;;;;5.82;5.22;;;;;;;23.32;57.19;96389.69;5032976;28;20602;-68
2021/07/12 04:31:36;;;;;;;6.88;5.65;;;;;;;23.61;56.47;96386.19;5033186;28;20495;-66
2021/07/12 04:34:02;;;;;;;5.68;5.07;;;;;;;23.95;55.71;96384.78;5033080;28;20082;-69
2021/07/12 04:36:28;;;;;;;5.93;5.32;;;;;;;24.23;55.22;96383.03;5033159;28;20026;-66
2021/07/12 04:38:53;;;;;;;6.18;5.32;;;;;;;24.47;54.40;96389.63;5033011;28;20029;-69
2021/07/12 04:41:19;;;;;;;5.43;4.93;;;;;;;24.73;54.58;96382.72;5033171;28;20021;-68
2021/07/12 04:43:44;;;;;;;9.68;5.82;;;;;;;25.05;54.24;96391.25;5033007;28;20025;-67
2021/07/12 04:46:10;;;;;;;6.63;5.07;;;;;;;25.40;53.90;96386.03;5032927;28;20028;-65
2021/07/12 04:48:35;;;;;;;5.72;5.18;;;;;;;25.70;52.54;96383.88;5033046;28;20022;-69
2021/07/12 04:51:01;;;;;;;5.78;5.18;;;;;;;26.01;52.55;96379.88;5032723;28;20067;-72
2021/07/12 04:53:26;;;;;;;5.70;5.20;;;;;;;26.27;52.39;96379.00;5032796;28;20101;-68
2021/07/12 04:55:52;;;;;;;6.68;5.47;;;;;;;26.48;51.84;96383.94;5032918;28;20065;-69
2021/07/12 04:58:17;;;;;;;9.68;5.20;;;;;;;26.76;50.48;96397.13;5032825;28;20418;-70
2021/07/12 05:00:43;;;;;;;7.10;4.97;;;;;;;27.02;50.26;96393.47;5032838;28;20021;-69
2021/07/12 05:03:09;;;;;;;6.13;5.18;;;;;;;27.35;49.71;96390.81;5032687;28;20032;-65
2021/07/12 05:05:35;;;;;;;5.63;4.97;;;;;;;27.67;49.31;96385.63;5032649;28;20021;-71
2021/07/12 05:08:00;;;;;;;6.65;5.20;;;;;;;27.98;49.00;96384.03;5031426;28;20160;-69
2021/07/12 05:10:26;;;;;;;5.53;5.03;;;;;;;28.13;48.41;96379.63;5032680;28;20026;-71
2021/07/12 05:12:52;;;;;;;5.65;5.07;;;;;;;28.39;47.20;96388.44;5032716;28;20047;-64
2021/07/12 05:15:17;;;;;;;6.03;5.43;;;;;;;28.60;46.37;96390.50;5032695;28;20032;-69
2021/07/12 05:17:43;;;;;;;7.10;5.70;;;;;;;28.84;45.57;96386.00;5032660;28;20071;-68
2021/07/12 05:20:09;;;;;;;9.93;5.45;;;;;;;29.03;45.14;96399.19;5032650;28;20018;-72
2021/07/12 05:22:35;;;;;;;8.10;6.03;;;;;;;29.25;43.91;96386.75;5032412;28;20033;-66
2021/07/12 05:25:02;;;;;;;8.73;6.38;;;;;;;29.52;43.49;96396.13;5032613;28;20029;-67
2021/07/12 05:27:27;;;;;;;5.88;5.30;;;;;;;29.72;41.48;96392.09;5032574;28;20026;-65
2021/07/12 05:29:53;;;;;;;7.10;5.70;;;;;;;29.92;41.70;96388.88;5032598;28;20017;-72
2021/07/12 05:32:19;;;;;;;6.18;5.57;;;;;;;30.08;43.13;96393.22;5032585;28;20032;-69
2021/07/12 05:34:45;;;;;;;6.72;5.35;;;;;;;30.26;43.34;96393.72;5032421;28;20025;-71
2021/07/12 05:37:11;;;;;;;5.75;5.15;;;;;;;30.38;42.08;96387.84;5032458;28;20018;-68
2021/07/12 05:39:36;;;;;;;6.35;5.20;;;;;;;30.49;42.44;96391.94;5033051;28;20025;-70
2021/07/12 05:42:02;;;;;;;11.40;6.22;;;;;;;30.46;41.75;96386.91;5035967;28;20101;-65
2021/07/12 05:44:28;;;;;;;6.65;5.45;;;;;;;30.57;44.52;96383.72;5035011;28;20021;-68
2021/07/12 05:46:53;;;;;;;6.85;5.63;;;;;;;30.71;42.69;96394.66;5036025;28;20042;-72
2021/07/12 05:49:19;;;;;;;6.88;5.70;;;;;;;30.94;44.32;96393.72;5035664;28;20065;-68
2021/07/12 05:51:47;;;;;;;6.90;5.40;;;;;;;30.93;42.56;96398.25;5035897;28;20068;-65
2021/07/12 05:54:13;;;;;;;6.82;5.47;;;;;;;31.08;41.57;96398.22;5035704;28;20113;-70
2021/07/12 05:56:39;;;;;;;6.97;5.47;;;;;;;31.31;41.10;96393.63;5035689;28;20021;-73
2021/07/12 05:59:04;;;;;;;6.10;5.25;;;;;;;31.38;41.36;96402.66;5035630;28;20036;-72
2021/07/12 06:01:30;;;;;;;5.75;5.15;;;;;;;31.49;41.70;96396.75;5035724;28;20022;-71
2021/07/12 06:03:55;;;;;;;6.50;5.72;;;;;;;31.61;40.09;96393.50;5035717;28;20029;-63
2021/07/12 06:06:21;;;;;;;5.85;5.35;;;;;;;31.74;41.22;96403.56;5035491;28;20048;-64
2021/07/12 06:08:47;;;;;;;6.32;5.35;;;;;;;31.92;41.91;96392.28;5035495;28;20045;-64
2021/07/12 06:11:12;;;;;;;8.23;5.25;;;;;;;32.13;41.22;96391.38;5035557;28;20044;-69
2021/07/12 06:13:38;;;;;;;7.53;5.30;;;;;;;32.30;40.47;96393.75;5035705;28;20021;-64
2021/07/12 06:16:04;;;;;;;5.97;5.20;;;;;;;32.50;40.28;96401.97;5035326;28;20017;-71
2021/07/12 06:18:29;;;;;;;7.03;5.10;;;;;;;32.66;40.11;96397.25;5035504;28;20026;-68
2021/07/12 06:20:55;;;;;;;6.18;5.28;;;;;;;32.75;39.10;96396.03;5035266;28;20018;-69
2021/07/12 06:23:20;;;;;;;7.07;5.30;;;;;;;32.87;38.80;96398.97;5035311;28;20499;-70
2021/07/12 06:25:46;;;;;;;5.68;5.07;;;;;;;33.02;37.88;96401.50;5035280;28;20033;-66
2021/07/12 06:28:12;;;;;;;6.47;5.00;;;;;;;32.96;37.13;96401.50;5035109;28;20021;-62
2021/07/12 06:30:37;;;;;;;6.35;5.00;;;;;;;33.00;36.58;96409.03;5035168;28;20025;-69
2021/07/12 06:33:03;;;;;;;8.82;4.82;;;;;;;32.88;36.94;96399.81;5035189;28;20033;-67
2021/07/12 06:35:29;;;;;;;5.85;5.25;;;;;;;32.88;37.52;96397.94;5035107;28;20025;-68
2021/07/12 06:37:55;;;;;;;6.85;4.95;;;;;;;33.00;38.04;96392.78;5034984;28;20096;-66
2021/07/12 06:40:22;;;;;;;7.38;5.03;;;;;;;33.27;37.57;96398.25;5034870;28;20022;-66
2021/07/12 06:42:48;;;;;;;5.07;4.57;;;;;;;33.34;37.22;96392.84;5034749;28;20036;-69
2021/07/12 06:45:15;;;;;;;5.60;4.65;;;;;;;33.38;37.94;96396.78;5034783;28;20163;-65
2021/07/12 06:47:40;;;;;;;9.35;4.97;;;;;;;33.63;37.00;96398.06;5034824;28;20017;-66
2021/07/12 06:50:06;;;;;;;6.15;4.53;;;;;;;33.76;37.66;96394.50;5034508;28;20099;-69
2021/07/12 06:52:32;;;;;;;5.20;4.70;;;;;;;33.49;36.86;96395.34;5033675;28;20422;-65
2021/07/12 06:54:58;;;;;;;4.47;4.00;;;;;;;33.39;33.53;96395.75;5034722;28;20026;-69
2021/07/12 06:57:23;;;;;;;4.70;4.30;;;;;;;33.27;35.84;96390.13;5034670;28;20465;-66
2021/07/12 06:59:51;;;;;;;6.95;4.88;;;;;;;33.21;32.56;96387.41;5034612;28;20025;-68
2021/07/12 07:02:17;;;;;;;5.82;4.55;;;;;;;32.92;34.03;96387.53;5034411;28;20065;-67
2021/07/12 07:04:42;;;;;;;6.82;4.50;;;;;;;33.02;33.83;96390.66;5034397;28;20049;-65
2021/07/12 07:07:08;;;;;;;8.90;4.10;;;;;;;33.20;34.19;96393.88;5034354;28;20380;-65
2021/07/12 07:09:34;;;;;;;7.63;3.72;;;;;;;33.30;32.85;96398.88;5034352;28;20029;-62
2021/07/12 07:11:59;;;;;;;7.70;4.32;;;;;;;33.23;33.00;96396.97;5034504;28;20029;-65
2021/07/12 07:14:25;;;;;;;6.00;4.50;;;;;;;32.88;32.61;96399.81;5034305;28;20502;-65
2021/07/12 07:16:51;;;;;;;4.90;4.40;;;;;;;32.74;36.26;96402.47;5034251;28;20040;-69
2021/07/12 07:19:16;;;;;;;10.27;4.45;;;;;;;33.00;34.67;96405.47;5034154;28;20022;-63
2021/07/12 07:21:42;;;;;;;5.30;4.10;;;;;;;33.33;33.86;96401.16;5034034;28;20053;-64
2021/07/12 07:24:08;;;;;;;7.15;4.22;;;;;;;33.55;31.48;96407.22;5034113;28;20028;-65
2021/07/12 07:26:33;;;;;;;5.32;4.15;;;;;;;33.55;33.31;96411.81;5034216;28;20025;-66
2021/07/12 07:28:59;;;;;;;4.97;4.53;;;;;;;33.71;33.21;96416.81;5034026;28;20506;-68
2021/07/12 07:31:25;;;;;;;6.72;4.00;;;;;;;33.43;31.12;96412.44;5033863;28;20403;-69
2021/07/12 07:33:51;;;;;;;5.53;4.47;;;;;;;33.50;32.51;96413.25;5033865;28;20079;-64
2021/07/12 07:36:17;;;;;;;4.80;4.18;;;;;;;33.64;33.05;96400.59;5033806;28;20029;-63
2021/07/12 07:38:44;;;;;;;4.30;3.78;;;;;;;33.83;33.15;96410.78;5033956;28;20021;-69
2021/07/12 07:41:09;;;;;;;4.97;4.18;;;;;;;33.93;32.08;96408.47;5033931;28;20028;-65
2021/07/12 07:43:35;;;;;;;8.45;4.43;;;;;;;33.77;31.30;96413.28;5033725;28;20034;-68
2021/07/12 07:46:01;;;;;;;6.88;4.07;;;;;;;33.61;31.61;96408.28;5033717;28;20029;-66
2021/07/12 07:48:26;;;;;;;5.30;4.45;;;;;;;33.45;31.79;96407.66;5033539;28;20601;-66
2021/07/12 07:50:52;;;;;;;5.35;4.38;;;;;;;33.63;33.13;96407.06;5033499;28;20043;-68
2021/07/12 07:53:18;;;;;;;9.90;4.30;;;;;;;33.48;30.12;96400.97;5033600;28;20037;-67
2021/07/12 07:55:43;;;;;;;5.70;4.45;;;;;;;33.50;32.23;96399.72;5033488;28;20024;-68
2021/07/12 07:58:09;;;;;;;6.55;4.28;;;;;;;33.53;32.32;96409.31;5032338;28;20501;-67
2021/07/12 08:00:36;;;;;;;5.68;4.28;;;;;;;33.61;33.13;96400.16;5033447;28;20013;-64
2021/07/12 08:03:02;;;;;;;7.43;4.50;;;;;;;33.60;30.99;96403.91;5033188;28;20445;-66
2021/07/12 08:05:28;;;;;;;7.45;4.78;;;;;;;33.56;32.61;96395.34;5033457;28;20100;-69
2021/07/12 08:07:53;;;;;;;4.78;4.30;;;;;;;33.92;32.62;96401.41;5033381;28;20124;-67
2021/07/12 08:10:19;;;;;;;7.82;4.57;;;;;;;34.08;33.21;96404.69;5033303;28;20032;-67
2021/07/12 08:12:46;;;;;;;9.00;4.78;;;;;;;34.33;31.32;96399.44;5033305;28;20055;-70
2021/07/12 08:15:13;;;;;;;5.78;4.13;;;;;;;34.59;32.22;96405.81;5033525;28;20070;-62
2021/07/12 08:17:40;;;;;;;6.28;4.20;;;;;;;34.58;27.50;96406.84;5033346;28;20080;-65
2021/07/12 08:20:08;;;;;;;5.13;4.20;;;;;;;34.17;27.50;96398.03;5033130;28;20040;-66
2021/07/12 08:22:35;;;;;;;5.15;3.95;;;;;;;33.83;27.43;96403.47;5033059;28;20048;-66
2021/07/12 08:25:02;;;;;;;6.18;4.18;;;;;;;33.61;27.36;96397.44;5033189;28;20033;-69
2021/07/12 08:27:29;;;;;;;6.78;4.53;;;;;;;33.17;28.74;96402.41;5033074;28;20033;-63
2021/07/12 08:29:54;;;;;;;7.22;4.60;;;;;;;33.01;28.37;96404.41;5033104;28;20029;-67
2021/07/12 08:32:21;;;;;;;5.50;3.55;;;;;;;32.52;29.71;96401.78;5033087;28;20024;-66
2021/07/12 08:34:46;;;;;;;6.63;4.43;;;;;;;32.31;30.35;96397.28;5032988;28;20433;-67
2021/07/12 08:37:13;;;;;;;7.78;4.57;;;;;;;32.27;31.00;96399.56;5033052;28;20053;-66
2021/07/12 08:39:39;;;;;;;7.65;4.95;;;;;;;32.28;30.16;96395.81;5032986;28;20021;-67
2021/07/12 08:42:05;;;;;;;5.88;4.53;;;;;;;32.53;32.94;96400.72;5032984;28;20541;-68
2021/07/12 08:44:31;;;;;;;7.38;4.05;;;;;;;32.63;29.59;96393.06;5032874;28;20368;-66
2021/07/12 08:46:57;;;;;;;8.02;4.90;;;;;;;32.71;31.56;96400.19;5033056;28;20093;-66
2021/07/12 08:49:24;;;;;;;7.45;4.55;;;;;;;32.51;30.07;96398.22;5032573;28;20029;-71
2021/07/12 08:51:50;;;;;;;8.13;4.43;;;;;;;32.27;31.70;96394.16;5033024;28;20132;-67
2021/07/12 08:54:16;;;;;;;7.15;4.93;;;;;;;31.97;32.61;96397.94;5032917;28;20117;-67
2021/07/12 08:56:41;;;;;;;7.75;5.00;;;;;;;31.94;33.07;96401.03;5032874;28;20096;-65
2021/07/12 08:59:29;;;;;;;6.63;4.68;;;;;;;31.92;34.35;96397.69;5032832;28;20494;-67
2021/07/12 09:02:15;;;;;;;6.80;4.65;;;;;;;32.10;31.92;96390.94;5032722;28;20036;-65
2021/07/12 09:04:44;;;;;;;6.20;4.43;;;;;;;32.17;31.91;96394.50;5032827;28;20022;-68
2021/07/12 09:07:32;;;;;;;7.18;4.50;;;;;;;31.97;33.03;96395.25;5032817;28;20025;-66
2021/07/12 09:10:11;;;;;;;7.55;4.30;;;;;;;31.82;32.53;96389.91;5032771;28;20036;-67
2021/07/12 09:12:47;;;;;;;6.78;4.50;;;;;;;32.02;34.13;96384.66;5032659;28;20034;-65
2021/07/12 09:15:16;;;;;;;10.63;4.88;;;;;;;32.14;33.11;96394.91;5034393;28;20124;-66
2021/07/12 09:17:47;;;;;;;4.72;4.18;;;;;;;32.23;31.50;96391.00;5036515;28;20108;-66
2021/07/12 09:20:33;;;;;;;6.88;3.95;;;;;;;32.21;31.67;96384.97;5036435;28;20033;-66
2021/07/12 09:23:18;;;;;;;6.68;4.90;;;;;;;31.87;32.05;96392.84;5036002;28;20034;-66
2021/07/12 09:26:03;;;;;;;8.38;4.57;;;;;;;31.54;33.07;96392.63;5036465;28;20026;-72
2021/07/12 09:28:45;;;;;;;5.57;4.15;;;;;;;31.67;32.29;96390.03;5036437;28;20017;-70
2021/07/12 09:31:32;;;;;;;5.30;4.22;;;;;;;31.76;33.63;96393.41;5036349;28;20049;-66
2021/07/12 09:34:02;;;;;;;5.15;4.22;;;;;;;31.49;34.43;96401.31;5036215;28;20034;-65
2021/07/12 09:36:31;;;;;;;6.43;4.63;;;;;;;31.66;31.41;96391.03;5036179;28;20040;-66
2021/07/12 09:38:57;;;;;;;11.10;4.82;;;;;;;31.68;31.89;96394.38;5036080;28;20479;-61
2021/07/12 09:41:29;;;;;;;7.03;4.68;;;;;;;31.87;33.11;96392.00;5036175;28;20048;-66
2021/07/12 09:44:02;;;;;;;6.28;4.68;;;;;;;31.80;32.68;96394.69;5036017;28;20530;-60
2021/07/12 09:46:31;;;;;;;9.18;4.43;;;;;;;31.54;31.49;96400.72;5035880;28;20022;-65
2021/07/12 09:49:18;;;;;;;5.15;4.20;;;;;;;31.56;31.54;96393.25;5035959;28;20017;-66
2021/07/12 09:51:44;;;;;;;11.23;4.53;;;;;;;31.81;31.51;96399.03;5035900;28;20054;-66
2021/07/12 09:54:17;;;;;;;6.45;4.45;;;;;;;32.09;30.06;96398.22;5035890;28;20475;-65
2021/07/12 09:56:43;;;;;;;5.18;4.07;;;;;;;32.28;30.44;96390.41;5035733;28;20060;-64
2021/07/12 09:59:12;;;;;;;4.85;4.05;;;;;;;32.47;32.54;96393.41;5035700;28;20032;-70
2021/07/12 10:01:38;;;;;;;4.50;3.78;;;;;;;32.76;29.65;96389.59;5035580;28;20467;-70
2021/07/12 10:04:05;;;;;;;4.90;3.67;;;;;;;33.01;29.20;96391.72;5034522;28;20028;-67
2021/07/12 10:06:32;;;;;;;6.45;3.80;;;;;;;33.12;28.88;96382.19;5035652;28;20037;-67
2021/07/12 10:08:58;;;;;;;5.13;3.75;;;;;;;33.14;29.03;96390.13;5035659;28;20069;-64
2021/07/12 10:11:24;;;;;;;3.95;3.65;;;;;;;33.24;32.00;96382.41;5035519;28;20558;-68
2021/07/12 10:13:50;;;;;;;8.00;3.92;;;;;;;33.18;31.56;96385.09;5035558;28;20117;-65
2021/07/12 10:16:16;;;;;;;6.32;4.13;;;;;;;32.85;29.82;96387.53;5035670;28;20057;-67
2021/07/12 10:18:42;;;;;;;4.93;4.22;;;;;;;32.82;29.37;96382.53;5035446;28;20044;-67
2021/07/12 10:21:09;;;;;;;9.27;3.72;;;;;;;32.78;27.17;96383.97;5035443;28;20507;-64
2021/07/12 10:23:35;;;;;;;5.35;4.55;;;;;;;32.43;30.16;96386.72;5035187;28;20052;-69
2021/07/12 10:26:02;;;;;;;5.80;3.92;;;;;;;31.82;30.18;96384.50;5035075;28;20379;-68
2021/07/12 10:28:41;;;;;;;4.60;3.95;;;;;;;31.93;31.07;96388.53;5035238;28;20452;-65
2021/07/12 10:31:21;;;;;;;5.72;3.78;;;;;;;32.12;29.87;96378.06;5035252;28;20028;-69
2021/07/12 10:33:47;;;;;;;7.27;3.80;;;;;;;32.01;27.52;96379.44;5035331;28;20124;-67
2021/07/12 10:36:36;;;;;;;7.45;4.03;;;;;;;31.92;30.24;96375.19;5035109;28;20037;-69
2021/07/12 10:39:03;;;;;;;10.82;3.70;;;;;;;31.65;28.67;96378.56;5035159;28;20033;-66
2021/07/12 10:41:29;;;;;;;5.57;3.97;;;;;;;31.77;30.19;96378.84;5035112;28;20442;-67
2021/07/12 10:44:00;;;;;;;5.20;3.65;;;;;;;32.06;31.81;96377.00;5034863;28;20030;-66
2021/07/12 10:46:30;;;;;;;4.28;3.80;;;;;;;32.39;28.50;96381.69;5034907;28;20105;-66
2021/07/12 10:49:00;;;;;;;5.88;4.00;;;;;;;32.38;29.08;96379.19;5034908;28;20040;-67
2021/07/12 10:51:28;;;;;;;6.25;4.25;;;;;;;32.47;31.32;96369.88;5034748;28;20376;-69
2021/07/12 10:54:08;;;;;;;11.77;4.07;;;;;;;32.63;30.04;96368.72;5034694;28;20124;-69
2021/07/12 10:56:59;;;;;;;4.85;3.45;;;;;;;32.65;29.74;96368.50;5034647;28;20040;-69
2021/07/12 10:59:28;;;;;;;5.03;3.40;;;;;;;32.57;28.14;96364.13;5034665;28;20049;-71
2021/07/12 11:01:54;;;;;;;5.10;4.00;;;;;;;32.18;30.32;96373.72;5034568;28;20036;-71
2021/07/12 11:04:38;;;;;;;4.15;3.70;;;;;;;32.12;27.29;96370.75;5034526;28;20614;-65
2021/07/12 11:07:10;;;;;;;4.93;3.42;;;;;;;31.87;28.80;96376.63;5034666;28;20052;-70
2021/07/12 11:09:55;;;;;;;3.78;3.25;;;;;;;31.75;30.87;96376.34;5034403;28;20475;-62
2021/07/12 11:12:33;;;;;;;5.28;4.10;;;;;;;31.50;31.25;96375.94;5034385;28;20120;-71
2021/07/12 11:15:33;;;;;;;6.53;4.15;;;;;;;31.69;31.13;96376.31;5034449;28;20419;-66
2021/07/12 11:18:01;;;;;;;8.05;4.10;;;;;;;31.96;29.38;96366.53;5022677;28;20045;-65
2021/07/12 11:20:44;;;;;;;4.10;3.70;;;;;;;32.01;31.68;96374.03;5034304;28;20026;-70
2021/07/12 11:23:34;;;;;;;8.85;4.10;;;;;;;32.14;30.24;96368.69;5034058;28;20041;-70
2021/07/12 11:26:00;;;;;;;5.63;4.18;;;;;;;32.17;30.94;96366.66;5034104;28;20030;-65
2021/07/12 11:28:42;;;;;;;4.90;4.10;;;;;;;32.29;31.29;96365.00;5034255;28;20028;-66
2021/07/12 11:31:46;;;;;;;5.80;3.55;;;;;;;32.40;31.52;96364.47;5034101;28;20026;-67
2021/07/12 11:34:14;;;;;;;5.00;3.85;;;;;;;32.61;28.92;96364.53;5034001;28;20030;-71
2021/07/12 11:36:57;;;;;;;5.22;3.72;;;;;;;32.65;29.09;96365.81;5033868;28;20022;-63
2021/07/12 11:39:25;;;;;;;4.85;3.65;;;;;;;32.69;29.24;96367.09;5032359;28;20383;-66
2021/07/12 11:41:50;;;;;;;6.03;3.63;;;;;;;32.72;28.53;96358.53;5033844;28;20112;-68